Stoneham, Canada
Current Conditions -  °F | °C
As of 12:27 AM on Sunday 26 Oct 2014 (Local Time) from CYOY Reporting Station
Broken Clouds Broken Clouds  
Wind Chill: 41°   Ceiling: 400
Heat Index: 41°   Visibility: 8mi
Dew Point: 39°   Wind: 0mph
Humidity: 93%   Direction: NA
Pressure: 29.37"   Gusts: NA
Location:  47°N, 71.37°W
Report Text: CYOY 260427Z AUTO 00000KT 8SM BKN004 05/04 A2937
Loading
Personal Weather Stations






























Interactive Weather Map
Tropical Storm Tracking
New forecast layout! Learn more

10-Day Weather Forecast

Advertisements
Track Severe Weather on mobile